sensor_id;sensor_type;location;lat;lon;timestamp;temperature;humidity
78696;SHT31;68030;51.980;5.646;2023-06-14T00:00:07;22.2;34.6
78696;SHT31;68030;51.980;5.646;2023-06-14T00:02:36;22.2;34.6
78696;SHT31;68030;51.980;5.646;2023-06-14T00:05:06;22.2;34.7
78696;SHT31;68030;51.980;5.646;2023-06-14T00:07:36;22.1;34.8
78696;SHT31;68030;51.980;5.646;2023-06-14T00:10:10;22.1;34.9
78696;SHT31;68030;51.980;5.646;2023-06-14T00:12:39;22.1;34.9
78696;SHT31;68030;51.980;5.646;2023-06-14T00:15:11;22.1;35.1
78696;SHT31;68030;51.980;5.646;2023-06-14T00:17:39;22.1;35.1
78696;SHT31;68030;51.980;5.646;2023-06-14T00:20:09;22.0;35.3
78696;SHT31;68030;51.980;5.646;2023-06-14T00:22:38;22.0;35.3
78696;SHT31;68030;51.980;5.646;2023-06-14T00:25:07;22.0;35.2
78696;SHT31;68030;51.980;5.646;2023-06-14T00:27:38;22.0;35.2
78696;SHT31;68030;51.980;5.646;2023-06-14T00:30:07;22.0;35.4
78696;SHT31;68030;51.980;5.646;2023-06-14T00:32:36;22.0;35.3
78696;SHT31;68030;51.980;5.646;2023-06-14T00:35:06;21.9;35.5
78696;SHT31;68030;51.980;5.646;2023-06-14T00:37:36;21.9;35.6
78696;SHT31;68030;51.980;5.646;2023-06-14T00:40:06;21.9;35.6
78696;SHT31;68030;51.980;5.646;2023-06-14T00:42:38;21.9;35.6
78696;SHT31;68030;51.980;5.646;2023-06-14T00:45:07;21.9;35.8
78696;SHT31;68030;51.980;5.646;2023-06-14T00:47:38;21.8;35.9
78696;SHT31;68030;51.980;5.646;2023-06-14T00:50:10;21.8;36.1
78696;SHT31;68030;51.980;5.646;2023-06-14T00:52:40;21.8;36.3
78696;SHT31;68030;51.980;5.646;2023-06-14T00:55:11;21.8;36.3
78696;SHT31;68030;51.980;5.646;2023-06-14T00:57:40;21.7;36.6
78696;SHT31;68030;51.980;5.646;2023-06-14T01:00:10;21.7;36.5
78696;SHT31;68030;51.980;5.646;2023-06-14T01:02:41;21.7;36.6
78696;SHT31;68030;51.980;5.646;2023-06-14T01:05:10;21.7;36.5
78696;SHT31;68030;51.980;5.646;2023-06-14T01:07:49;21.6;36.6
78696;SHT31;68030;51.980;5.646;2023-06-14T01:10:29;21.6;36.5
78696;SHT31;68030;51.980;5.646;2023-06-14T01:13:08;21.6;36.6
78696;SHT31;68030;51.980;5.646;2023-06-14T01:15:41;21.5;36.6
78696;SHT31;68030;51.980;5.646;2023-06-14T01:18:11;21.5;36.6
78696;SHT31;68030;51.980;5.646;2023-06-14T01:20:44;21.5;36.7
78696;SHT31;68030;51.980;5.646;2023-06-14T01:23:16;21.5;36.7
78696;SHT31;68030;51.980;5.646;2023-06-14T01:25:45;21.4;37.0
78696;SHT31;68030;51.980;5.646;2023-06-14T01:28:16;21.4;37.0
78696;SHT31;68030;51.980;5.646;2023-06-14T01:30:49;21.4;37.1
78696;SHT31;68030;51.980;5.646;2023-06-14T01:33:21;21.4;37.0
78696;SHT31;68030;51.980;5.646;2023-06-14T01:35:52;21.3;37.3
78696;SHT31;68030;51.980;5.646;2023-06-14T01:38:23;21.3;37.2
78696;SHT31;68030;51.980;5.646;2023-06-14T01:40:54;21.3;37.2
78696;SHT31;68030;51.980;5.646;2023-06-14T01:43:25;21.2;37.2
78696;SHT31;68030;51.980;5.646;2023-06-14T01:45:57;21.2;37.3
78696;SHT31;68030;51.980;5.646;2023-06-14T01:48:28;21.2;37.4
78696;SHT31;68030;51.980;5.646;2023-06-14T01:50:57;21.1;37.6
78696;SHT31;68030;51.980;5.646;2023-06-14T01:53:25;21.1;37.6
78696;SHT31;68030;51.980;5.646;2023-06-14T01:55:54;21.1;37.6
78696;SHT31;68030;51.980;5.646;2023-06-14T01:58:22;21.1;37.7
78696;SHT31;68030;51.980;5.646;2023-06-14T02:00:52;21.0;37.6
78696;SHT31;68030;51.980;5.646;2023-06-14T02:03:24;21.0;37.8
78696;SHT31;68030;51.980;5.646;2023-06-14T02:05:53;21.0;37.8
78696;SHT31;68030;51.980;5.646;2023-06-14T02:08:22;20.9;37.9
78696;SHT31;68030;51.980;5.646;2023-06-14T02:10:51;20.9;38.0
78696;SHT31;68030;51.980;5.646;2023-06-14T02:13:20;20.9;38.2
78696;SHT31;68030;51.980;5.646;2023-06-14T02:15:48;20.8;38.3
78696;SHT31;68030;51.980;5.646;2023-06-14T02:18:20;20.8;38.4
78696;SHT31;68030;51.980;5.646;2023-06-14T02:20:49;20.8;38.3
78696;SHT31;68030;51.980;5.646;2023-06-14T02:23:18;20.7;38.5
78696;SHT31;68030;51.980;5.646;2023-06-14T02:25:47;20.7;38.4
78696;SHT31;68030;51.980;5.646;2023-06-14T02:28:16;20.7;38.5
78696;SHT31;68030;51.980;5.646;2023-06-14T02:30:45;20.6;38.6
78696;SHT31;68030;51.980;5.646;2023-06-14T02:33:13;20.6;38.8
78696;SHT31;68030;51.980;5.646;2023-06-14T02:35:42;20.6;38.8
78696;SHT31;68030;51.980;5.646;2023-06-14T02:38:11;20.6;38.9
78696;SHT31;68030;51.980;5.646;2023-06-14T02:40:40;20.5;39.0
78696;SHT31;68030;51.980;5.646;2023-06-14T02:43:09;20.5;39.0
78696;SHT31;68030;51.980;5.646;2023-06-14T02:45:37;20.5;39.2
78696;SHT31;68030;51.980;5.646;2023-06-14T02:48:06;20.4;39.3
78696;SHT31;68030;51.980;5.646;2023-06-14T02:50:37;20.4;39.3
78696;SHT31;68030;51.980;5.646;2023-06-14T02:53:06;20.4;39.4
78696;SHT31;68030;51.980;5.646;2023-06-14T02:55:34;20.4;39.4
78696;SHT31;68030;51.980;5.646;2023-06-14T02:58:06;20.3;39.6
78696;SHT31;68030;51.980;5.646;2023-06-14T03:00:34;20.3;39.6
78696;SHT31;68030;51.980;5.646;2023-06-14T03:03:04;20.3;39.5
78696;SHT31;68030;51.980;5.646;2023-06-14T03:05:38;20.3;39.7
78696;SHT31;68030;51.980;5.646;2023-06-14T03:08:07;20.2;39.6
78696;SHT31;68030;51.980;5.646;2023-06-14T03:10:35;20.2;39.8
78696;SHT31;68030;51.980;5.646;2023-06-14T03:13:06;20.2;40.0
78696;SHT31;68030;51.980;5.646;2023-06-14T03:15:34;20.1;40.0
78696;SHT31;68030;51.980;5.646;2023-06-14T03:18:04;20.1;40.2
78696;SHT31;68030;51.980;5.646;2023-06-14T03:20:35;20.1;40.1
78696;SHT31;68030;51.980;5.646;2023-06-14T03:23:04;20.0;40.1
78696;SHT31;68030;51.980;5.646;2023-06-14T03:25:33;20.0;40.3
78696;SHT31;68030;51.980;5.646;2023-06-14T03:28:05;20.0;40.4
78696;SHT31;68030;51.980;5.646;2023-06-14T03:30:35;20.0;40.6
78696;SHT31;68030;51.980;5.646;2023-06-14T03:33:05;19.9;40.6
78696;SHT31;68030;51.980;5.646;2023-06-14T03:35:33;19.9;40.6
78696;SHT31;68030;51.980;5.646;2023-06-14T03:38:02;19.9;40.8
78696;SHT31;68030;51.980;5.646;2023-06-14T03:40:31;19.9;40.7
78696;SHT31;68030;51.980;5.646;2023-06-14T03:43:00;19.9;40.9
78696;SHT31;68030;51.980;5.646;2023-06-14T03:45:28;19.8;41.0
78696;SHT31;68030;51.980;5.646;2023-06-14T03:47:57;19.8;41.1
78696;SHT31;68030;51.980;5.646;2023-06-14T03:50:27;19.8;41.1
78696;SHT31;68030;51.980;5.646;2023-06-14T03:52:55;19.8;41.2
78696;SHT31;68030;51.980;5.646;2023-06-14T03:55:24;19.8;41.4
78696;SHT31;68030;51.980;5.646;2023-06-14T03:57:54;19.8;41.3
78696;SHT31;68030;51.980;5.646;2023-06-14T04:00:22;19.7;41.4
78696;SHT31;68030;51.980;5.646;2023-06-14T04:02:53;19.7;41.6
78696;SHT31;68030;51.980;5.646;2023-06-14T04:05:22;19.7;41.6
78696;SHT31;68030;51.980;5.646;2023-06-14T04:07:53;19.7;41.5
78696;SHT31;68030;51.980;5.646;2023-06-14T04:10:22;19.7;41.6
78696;SHT31;68030;51.980;5.646;2023-06-14T04:12:51;19.7;41.4
78696;SHT31;68030;51.980;5.646;2023-06-14T04:15:20;19.7;41.7
78696;SHT31;68030;51.980;5.646;2023-06-14T04:17:48;19.7;41.9
78696;SHT31;68030;51.980;5.646;2023-06-14T04:20:17;19.7;41.8
78696;SHT31;68030;51.980;5.646;2023-06-14T04:22:46;19.7;41.9
78696;SHT31;68030;51.980;5.646;2023-06-14T04:25:15;19.7;42.1
78696;SHT31;68030;51.980;5.646;2023-06-14T04:27:46;19.7;42.0
78696;SHT31;68030;51.980;5.646;2023-06-14T04:30:16;19.7;42.5
78696;SHT31;68030;51.980;5.646;2023-06-14T04:32:45;19.7;42.5
78696;SHT31;68030;51.980;5.646;2023-06-14T04:35:14;19.7;42.3
78696;SHT31;68030;51.980;5.646;2023-06-14T04:37:43;19.8;41.9
78696;SHT31;68030;51.980;5.646;2023-06-14T04:40:12;19.8;41.9
78696;SHT31;68030;51.980;5.646;2023-06-14T04:42:43;19.8;42.3
78696;SHT31;68030;51.980;5.646;2023-06-14T04:45:14;19.8;42.5
78696;SHT31;68030;51.980;5.646;2023-06-14T04:47:43;19.9;42.2
78696;SHT31;68030;51.980;5.646;2023-06-14T04:50:12;20.0;42.0
78696;SHT31;68030;51.980;5.646;2023-06-14T04:52:41;20.1;41.6
78696;SHT31;68030;51.980;5.646;2023-06-14T04:55:11;20.3;41.5
78696;SHT31;68030;51.980;5.646;2023-06-14T04:57:40;20.4;41.4
78696;SHT31;68030;51.980;5.646;2023-06-14T05:00:10;20.4;41.1
78696;SHT31;68030;51.980;5.646;2023-06-14T05:02:40;20.5;40.8
78696;SHT31;68030;51.980;5.646;2023-06-14T05:05:09;20.5;41.0
78696;SHT31;68030;51.980;5.646;2023-06-14T05:07:37;20.5;41.0
78696;SHT31;68030;51.980;5.646;2023-06-14T05:10:08;20.6;41.0
78696;SHT31;68030;51.980;5.646;2023-06-14T05:12:37;20.6;41.0
78696;SHT31;68030;51.980;5.646;2023-06-14T05:15:07;20.6;41.1
78696;SHT31;68030;51.980;5.646;2023-06-14T05:17:37;20.6;40.7
78696;SHT31;68030;51.980;5.646;2023-06-14T05:20:08;20.7;41.1
78696;SHT31;68030;51.980;5.646;2023-06-14T05:22:39;20.7;40.9
78696;SHT31;68030;51.980;5.646;2023-06-14T05:25:08;20.8;40.9
78696;SHT31;68030;51.980;5.646;2023-06-14T05:27:37;20.8;40.7
78696;SHT31;68030;51.980;5.646;2023-06-14T05:30:08;20.8;40.8
78696;SHT31;68030;51.980;5.646;2023-06-14T05:32:37;20.9;40.5
78696;SHT31;68030;51.980;5.646;2023-06-14T05:35:07;20.9;40.4
78696;SHT31;68030;51.980;5.646;2023-06-14T05:37:36;21.0;40.7
78696;SHT31;68030;51.980;5.646;2023-06-14T05:40:06;21.0;40.8
78696;SHT31;68030;51.980;5.646;2023-06-14T05:42:35;21.1;40.7
78696;SHT31;68030;51.980;5.646;2023-06-14T05:45:04;21.2;40.2
78696;SHT31;68030;51.980;5.646;2023-06-14T05:47:34;21.2;40.0
78696;SHT31;68030;51.980;5.646;2023-06-14T05:50:02;21.3;40.0
78696;SHT31;68030;51.980;5.646;2023-06-14T05:52:33;21.4;39.7
78696;SHT31;68030;51.980;5.646;2023-06-14T05:55:03;21.4;40.0
78696;SHT31;68030;51.980;5.646;2023-06-14T05:57:32;21.5;40.2
78696;SHT31;68030;51.980;5.646;2023-06-14T06:00:02;21.6;39.7
78696;SHT31;68030;51.980;5.646;2023-06-14T06:02:37;21.6;39.8
78696;SHT31;68030;51.980;5.646;2023-06-14T06:05:09;21.7;39.1
78696;SHT31;68030;51.980;5.646;2023-06-14T06:07:38;21.8;39.1
78696;SHT31;68030;51.980;5.646;2023-06-14T06:10:09;21.9;39.3
78696;SHT31;68030;51.980;5.646;2023-06-14T06:12:37;22.0;39.0
78696;SHT31;68030;51.980;5.646;2023-06-14T06:15:09;22.0;39.0
78696;SHT31;68030;51.980;5.646;2023-06-14T06:17:40;22.1;39.0
78696;SHT31;68030;51.980;5.646;2023-06-14T06:20:12;22.2;38.0
78696;SHT31;68030;51.980;5.646;2023-06-14T06:22:41;22.3;38.1
78696;SHT31;68030;51.980;5.646;2023-06-14T06:25:10;22.4;38.1
78696;SHT31;68030;51.980;5.646;2023-06-14T06:27:41;22.5;37.4
78696;SHT31;68030;51.980;5.646;2023-06-14T06:30:13;22.6;37.1
78696;SHT31;68030;51.980;5.646;2023-06-14T06:32:42;22.6;36.9
78696;SHT31;68030;51.980;5.646;2023-06-14T06:35:11;22.7;37.1
78696;SHT31;68030;51.980;5.646;2023-06-14T06:37:42;22.8;36.5
78696;SHT31;68030;51.980;5.646;2023-06-14T06:40:11;22.9;36.6
78696;SHT31;68030;51.980;5.646;2023-06-14T06:42:43;23.0;36.7
78696;SHT31;68030;51.980;5.646;2023-06-14T06:45:12;23.0;36.5
78696;SHT31;68030;51.980;5.646;2023-06-14T06:47:40;23.1;36.7
78696;SHT31;68030;51.980;5.646;2023-06-14T06:50:09;23.2;36.3
78696;SHT31;68030;51.980;5.646;2023-06-14T06:52:38;23.3;36.3
78696;SHT31;68030;51.980;5.646;2023-06-14T06:55:08;23.4;36.3
78696;SHT31;68030;51.980;5.646;2023-06-14T06:57:37;23.4;36.1
78696;SHT31;68030;51.980;5.646;2023-06-14T07:00:07;23.5;35.9
78696;SHT31;68030;51.980;5.646;2023-06-14T07:02:37;23.6;35.5
78696;SHT31;68030;51.980;5.646;2023-06-14T07:05:06;23.6;35.1
78696;SHT31;68030;51.980;5.646;2023-06-14T07:07:35;23.7;35.5
78696;SHT31;68030;51.980;5.646;2023-06-14T07:10:05;23.7;35.2
78696;SHT31;68030;51.980;5.646;2023-06-14T07:12:34;23.8;35.8
78696;SHT31;68030;51.980;5.646;2023-06-14T07:15:06;23.9;35.8
78696;SHT31;68030;51.980;5.646;2023-06-14T07:17:36;24.0;35.3
78696;SHT31;68030;51.980;5.646;2023-06-14T07:20:05;24.1;35.1
78696;SHT31;68030;51.980;5.646;2023-06-14T07:22:40;24.2;34.0
78696;SHT31;68030;51.980;5.646;2023-06-14T07:25:11;24.3;34.5
78696;SHT31;68030;51.980;5.646;2023-06-14T07:27:43;24.4;34.2
78696;SHT31;68030;51.980;5.646;2023-06-14T07:30:14;24.4;34.0
78696;SHT31;68030;51.980;5.646;2023-06-14T07:32:43;24.5;33.8
78696;SHT31;68030;51.980;5.646;2023-06-14T07:35:12;24.5;33.6
78696;SHT31;68030;51.980;5.646;2023-06-14T07:37:40;24.6;33.3
78696;SHT31;68030;51.980;5.646;2023-06-14T07:40:13;24.7;33.2
78696;SHT31;68030;51.980;5.646;2023-06-14T07:42:41;24.7;33.3
78696;SHT31;68030;51.980;5.646;2023-06-14T07:45:14;24.8;33.0
78696;SHT31;68030;51.980;5.646;2023-06-14T07:47:43;24.8;32.9
78696;SHT31;68030;51.980;5.646;2023-06-14T07:50:14;24.9;32.5
78696;SHT31;68030;51.980;5.646;2023-06-14T07:52:42;24.9;32.8
78696;SHT31;68030;51.980;5.646;2023-06-14T07:55:11;25.0;32.6
78696;SHT31;68030;51.980;5.646;2023-06-14T07:57:41;25.0;32.0
78696;SHT31;68030;51.980;5.646;2023-06-14T08:00:12;25.1;32.2
78696;SHT31;68030;51.980;5.646;2023-06-14T08:02:41;25.1;31.7
78696;SHT31;68030;51.980;5.646;2023-06-14T08:05:11;25.2;32.4
78696;SHT31;68030;51.980;5.646;2023-06-14T08:07:40;25.3;32.3
78696;SHT31;68030;51.980;5.646;2023-06-14T08:10:10;25.3;31.5
78696;SHT31;68030;51.980;5.646;2023-06-14T08:12:38;25.4;31.4
78696;SHT31;68030;51.980;5.646;2023-06-14T08:15:08;25.5;31.3
78696;SHT31;68030;51.980;5.646;2023-06-14T08:17:38;25.5;31.4
78696;SHT31;68030;51.980;5.646;2023-06-14T08:20:08;25.5;31.6
78696;SHT31;68030;51.980;5.646;2023-06-14T08:22:37;25.6;31.6
78696;SHT31;68030;51.980;5.646;2023-06-14T08:25:09;25.7;32.1
78696;SHT31;68030;51.980;5.646;2023-06-14T08:27:40;25.7;31.9
78696;SHT31;68030;51.980;5.646;2023-06-14T08:30:13;25.8;30.8
78696;SHT31;68030;51.980;5.646;2023-06-14T08:32:43;25.9;30.9
78696;SHT31;68030;51.980;5.646;2023-06-14T08:35:12;26.0;30.6
78696;SHT31;68030;51.980;5.646;2023-06-14T08:37:44;26.1;29.4
78696;SHT31;68030;51.980;5.646;2023-06-14T08:40:19;26.2;29.5
78696;SHT31;68030;51.980;5.646;2023-06-14T08:42:52;26.3;29.8
78696;SHT31;68030;51.980;5.646;2023-06-14T08:45:23;26.3;30.0
78696;SHT31;68030;51.980;5.646;2023-06-14T08:47:53;26.4;29.9
78696;SHT31;68030;51.980;5.646;2023-06-14T08:50:27;26.5;29.2
78696;SHT31;68030;51.980;5.646;2023-06-14T08:52:59;26.6;29.0
78696;SHT31;68030;51.980;5.646;2023-06-14T08:55:30;26.6;28.9
78696;SHT31;68030;51.980;5.646;2023-06-14T08:57:59;26.7;28.5
78696;SHT31;68030;51.980;5.646;2023-06-14T09:00:29;26.8;28.0
78696;SHT31;68030;51.980;5.646;2023-06-14T09:03:01;26.8;27.0
78696;SHT31;68030;51.980;5.646;2023-06-14T09:05:29;26.9;27.5
78696;SHT31;68030;51.980;5.646;2023-06-14T09:07:58;26.9;27.8
78696;SHT31;68030;51.980;5.646;2023-06-14T09:10:28;26.9;27.5
78696;SHT31;68030;51.980;5.646;2023-06-14T09:12:56;27.0;26.7
78696;SHT31;68030;51.980;5.646;2023-06-14T09:15:26;27.0;26.6
78696;SHT31;68030;51.980;5.646;2023-06-14T09:17:56;27.0;27.1
78696;SHT31;68030;51.980;5.646;2023-06-14T09:20:26;27.0;27.6
78696;SHT31;68030;51.980;5.646;2023-06-14T09:22:57;27.0;27.4
78696;SHT31;68030;51.980;5.646;2023-06-14T09:25:26;27.1;26.8
78696;SHT31;68030;51.980;5.646;2023-06-14T09:27:54;27.1;26.9
78696;SHT31;68030;51.980;5.646;2023-06-14T09:30:23;27.1;26.1
78696;SHT31;68030;51.980;5.646;2023-06-14T09:32:51;27.2;26.2
78696;SHT31;68030;51.980;5.646;2023-06-14T09:35:20;27.2;26.9
78696;SHT31;68030;51.980;5.646;2023-06-14T09:37:49;27.3;26.8
78696;SHT31;68030;51.980;5.646;2023-06-14T09:40:20;27.4;26.2
78696;SHT31;68030;51.980;5.646;2023-06-14T09:42:49;27.4;25.4
78696;SHT31;68030;51.980;5.646;2023-06-14T09:45:21;27.5;25.8
78696;SHT31;68030;51.980;5.646;2023-06-14T09:47:51;27.5;25.8
78696;SHT31;68030;51.980;5.646;2023-06-14T09:50:19;27.5;25.8
78696;SHT31;68030;51.980;5.646;2023-06-14T09:52:52;27.5;26.7
78696;SHT31;68030;51.980;5.646;2023-06-14T09:55:30;27.6;26.4
78696;SHT31;68030;51.980;5.646;2023-06-14T09:58:01;27.6;25.3
78696;SHT31;68030;51.980;5.646;2023-06-14T10:00:33;27.7;25.8
78696;SHT31;68030;51.980;5.646;2023-06-14T10:03:09;27.7;25.5
78696;SHT31;68030;51.980;5.646;2023-06-14T10:05:42;27.7;26.0
78696;SHT31;68030;51.980;5.646;2023-06-14T10:08:14;27.8;26.4
78696;SHT31;68030;51.980;5.646;2023-06-14T10:10:45;27.8;27.1
78696;SHT31;68030;51.980;5.646;2023-06-14T10:13:15;27.8;27.0
78696;SHT31;68030;51.980;5.646;2023-06-14T10:15:54;27.9;26.1
78696;SHT31;68030;51.980;5.646;2023-06-14T10:18:31;27.9;26.7
78696;SHT31;68030;51.980;5.646;2023-06-14T10:21:06;27.9;26.3
78696;SHT31;68030;51.980;5.646;2023-06-14T10:23:41;27.9;25.8
78696;SHT31;68030;51.980;5.646;2023-06-14T10:26:19;27.9;25.8
78696;SHT31;68030;51.980;5.646;2023-06-14T10:29:01;27.9;26.0
78696;SHT31;68030;51.980;5.646;2023-06-14T10:32:03;27.9;25.6
78696;SHT31;68030;51.980;5.646;2023-06-14T10:34:32;27.9;26.3
78696;SHT31;68030;51.980;5.646;2023-06-14T10:37:06;28.0;26.3
78696;SHT31;68030;51.980;5.646;2023-06-14T10:39:39;28.0;26.5
78696;SHT31;68030;51.980;5.646;2023-06-14T10:42:09;28.0;26.8
78696;SHT31;68030;51.980;5.646;2023-06-14T10:44:42;28.0;26.7
78696;SHT31;68030;51.980;5.646;2023-06-14T10:47:23;28.1;26.5
78696;SHT31;68030;51.980;5.646;2023-06-14T10:49:53;28.1;25.4
78696;SHT31;68030;51.980;5.646;2023-06-14T10:52:25;28.1;25.5
78696;SHT31;68030;51.980;5.646;2023-06-14T10:55:27;28.1;26.0
78696;SHT31;68030;51.980;5.646;2023-06-14T10:57:56;28.0;25.8
78696;SHT31;68030;51.980;5.646;2023-06-14T11:00:29;28.0;26.1
78696;SHT31;68030;51.980;5.646;2023-06-14T11:03:43;28.0;26.2
78696;SHT31;68030;51.980;5.646;2023-06-14T11:06:15;28.0;26.7
78696;SHT31;68030;51.980;5.646;2023-06-14T11:09:17;28.1;26.6
78696;SHT31;68030;51.980;5.646;2023-06-14T11:11:48;28.1;26.4
78696;SHT31;68030;51.980;5.646;2023-06-14T11:14:19;28.1;26.0
78696;SHT31;68030;51.980;5.646;2023-06-14T11:16:50;28.2;25.2
78696;SHT31;68030;51.980;5.646;2023-06-14T11:19:19;28.3;25.8
78696;SHT31;68030;51.980;5.646;2023-06-14T11:21:50;28.3;25.2
78696;SHT31;68030;51.980;5.646;2023-06-14T11:24:20;28.3;25.6
78696;SHT31;68030;51.980;5.646;2023-06-14T11:26:48;28.4;25.3
78696;SHT31;68030;51.980;5.646;2023-06-14T11:29:20;28.4;25.3
78696;SHT31;68030;51.980;5.646;2023-06-14T11:31:49;28.4;24.8
78696;SHT31;68030;51.980;5.646;2023-06-14T11:34:18;28.4;24.8
78696;SHT31;68030;51.980;5.646;2023-06-14T11:36:48;28.4;25.0
78696;SHT31;68030;51.980;5.646;2023-06-14T11:39:17;28.4;24.7
78696;SHT31;68030;51.980;5.646;2023-06-14T11:41:47;28.4;24.9
78696;SHT31;68030;51.980;5.646;2023-06-14T11:44:16;28.4;25.3
78696;SHT31;68030;51.980;5.646;2023-06-14T11:46:46;28.4;25.0
78696;SHT31;68030;51.980;5.646;2023-06-14T11:49:18;28.4;24.6
78696;SHT31;68030;51.980;5.646;2023-06-14T11:51:47;28.5;25.0
78696;SHT31;68030;51.980;5.646;2023-06-14T11:54:16;28.5;25.1
78696;SHT31;68030;51.980;5.646;2023-06-14T11:56:47;28.5;24.8
78696;SHT31;68030;51.980;5.646;2023-06-14T11:59:18;28.5;25.0
78696;SHT31;68030;51.980;5.646;2023-06-14T12:01:49;28.6;25.8
78696;SHT31;68030;51.980;5.646;2023-06-14T12:04:26;28.6;25.9
78696;SHT31;68030;51.980;5.646;2023-06-14T12:06:55;28.7;25.5
78696;SHT31;68030;51.980;5.646;2023-06-14T12:09:24;28.7;25.1
78696;SHT31;68030;51.980;5.646;2023-06-14T12:12:02;28.8;24.9
78696;SHT31;68030;51.980;5.646;2023-06-14T12:14:31;28.8;24.5
78696;SHT31;68030;51.980;5.646;2023-06-14T12:17:06;28.9;24.8
78696;SHT31;68030;51.980;5.646;2023-06-14T12:19:41;28.9;25.5
78696;SHT31;68030;51.980;5.646;2023-06-14T12:22:12;28.9;25.7
78696;SHT31;68030;51.980;5.646;2023-06-14T12:24:44;28.9;25.8
78696;SHT31;68030;51.980;5.646;2023-06-14T12:27:13;29.0;26.0
78696;SHT31;68030;51.980;5.646;2023-06-14T12:29:42;29.0;26.1
78696;SHT31;68030;51.980;5.646;2023-06-14T12:32:13;29.0;26.1
78696;SHT31;68030;51.980;5.646;2023-06-14T12:34:43;29.0;26.5
78696;SHT31;68030;51.980;5.646;2023-06-14T12:37:12;29.0;26.3
78696;SHT31;68030;51.980;5.646;2023-06-14T12:39:41;29.1;26.2
78696;SHT31;68030;51.980;5.646;2023-06-14T12:42:09;29.1;25.6
78696;SHT31;68030;51.980;5.646;2023-06-14T12:44:39;29.2;25.8
78696;SHT31;68030;51.980;5.646;2023-06-14T12:47:09;29.2;26.0
78696;SHT31;68030;51.980;5.646;2023-06-14T12:49:39;29.2;25.5
78696;SHT31;68030;51.980;5.646;2023-06-14T12:52:10;29.2;24.8
78696;SHT31;68030;51.980;5.646;2023-06-14T12:54:38;29.3;24.5
78696;SHT31;68030;51.980;5.646;2023-06-14T12:57:08;29.3;24.3
78696;SHT31;68030;51.980;5.646;2023-06-14T12:59:38;29.3;24.8
78696;SHT31;68030;51.980;5.646;2023-06-14T13:02:16;29.2;25.2
78696;SHT31;68030;51.980;5.646;2023-06-14T13:04:45;29.3;23.9
78696;SHT31;68030;51.980;5.646;2023-06-14T13:07:13;29.3;24.1
78696;SHT31;68030;51.980;5.646;2023-06-14T13:09:43;29.3;24.6
78696;SHT31;68030;51.980;5.646;2023-06-14T13:12:12;29.3;25.1
78696;SHT31;68030;51.980;5.646;2023-06-14T13:14:41;29.3;25.4
78696;SHT31;68030;51.980;5.646;2023-06-14T13:17:10;29.4;24.5
78696;SHT31;68030;51.980;5.646;2023-06-14T13:19:39;29.4;24.7
78696;SHT31;68030;51.980;5.646;2023-06-14T13:22:08;29.4;24.4
78696;SHT31;68030;51.980;5.646;2023-06-14T13:24:37;29.4;24.9
78696;SHT31;68030;51.980;5.646;2023-06-14T13:27:06;29.4;25.8
78696;SHT31;68030;51.980;5.646;2023-06-14T13:29:35;29.4;25.7
78696;SHT31;68030;51.980;5.646;2023-06-14T13:32:04;29.4;25.9
78696;SHT31;68030;51.980;5.646;2023-06-14T13:34:33;29.4;25.4
78696;SHT31;68030;51.980;5.646;2023-06-14T13:37:02;29.4;25.3
78696;SHT31;68030;51.980;5.646;2023-06-14T13:39:31;29.4;25.4
78696;SHT31;68030;51.980;5.646;2023-06-14T13:41:59;29.4;26.0
78696;SHT31;68030;51.980;5.646;2023-06-14T13:44:28;29.4;25.8
78696;SHT31;68030;51.980;5.646;2023-06-14T13:46:56;29.4;25.9
78696;SHT31;68030;51.980;5.646;2023-06-14T13:49:25;29.5;25.6
78696;SHT31;68030;51.980;5.646;2023-06-14T13:51:53;29.5;25.6
78696;SHT31;68030;51.980;5.646;2023-06-14T13:54:23;29.6;25.6
78696;SHT31;68030;51.980;5.646;2023-06-14T13:56:51;29.6;24.5
78696;SHT31;68030;51.980;5.646;2023-06-14T13:59:20;29.7;24.7
78696;SHT31;68030;51.980;5.646;2023-06-14T14:01:49;29.7;24.1
78696;SHT31;68030;51.980;5.646;2023-06-14T14:04:18;29.8;23.9
78696;SHT31;68030;51.980;5.646;2023-06-14T14:06:46;29.8;24.4
78696;SHT31;68030;51.980;5.646;2023-06-14T14:09:15;29.8;24.3
78696;SHT31;68030;51.980;5.646;2023-06-14T14:11:44;29.8;24.6
78696;SHT31;68030;51.980;5.646;2023-06-14T14:14:12;29.9;24.7
78696;SHT31;68030;51.980;5.646;2023-06-14T14:16:41;29.9;24.6
78696;SHT31;68030;51.980;5.646;2023-06-14T14:19:13;29.9;24.3
78696;SHT31;68030;51.980;5.646;2023-06-14T14:21:42;29.9;24.4
78696;SHT31;68030;51.980;5.646;2023-06-14T14:24:11;29.9;24.3
78696;SHT31;68030;51.980;5.646;2023-06-14T14:26:40;29.9;23.9
78696;SHT31;68030;51.980;5.646;2023-06-14T14:29:08;29.9;24.0
78696;SHT31;68030;51.980;5.646;2023-06-14T14:31:38;29.9;24.1
78696;SHT31;68030;51.980;5.646;2023-06-14T14:34:06;29.9;24.7
78696;SHT31;68030;51.980;5.646;2023-06-14T14:36:35;29.9;24.7
78696;SHT31;68030;51.980;5.646;2023-06-14T14:39:10;29.9;24.4
78696;SHT31;68030;51.980;5.646;2023-06-14T14:41:38;29.9;24.6
78696;SHT31;68030;51.980;5.646;2023-06-14T14:44:08;29.9;24.3
78696;SHT31;68030;51.980;5.646;2023-06-14T14:46:36;29.9;24.4
78696;SHT31;68030;51.980;5.646;2023-06-14T14:49:05;29.9;24.4
78696;SHT31;68030;51.980;5.646;2023-06-14T14:51:34;29.9;24.3
78696;SHT31;68030;51.980;5.646;2023-06-14T14:54:05;29.9;24.8
78696;SHT31;68030;51.980;5.646;2023-06-14T14:56:34;29.9;24.7
78696;SHT31;68030;51.980;5.646;2023-06-14T14:59:04;29.9;24.4
78696;SHT31;68030;51.980;5.646;2023-06-14T15:01:33;29.8;24.5
78696;SHT31;68030;51.980;5.646;2023-06-14T15:04:01;29.8;24.0
78696;SHT31;68030;51.980;5.646;2023-06-14T15:06:30;29.8;24.8
78696;SHT31;68030;51.980;5.646;2023-06-14T15:09:02;29.8;24.6
78696;SHT31;68030;51.980;5.646;2023-06-14T15:11:31;29.8;24.6
78696;SHT31;68030;51.980;5.646;2023-06-14T15:14:01;29.7;24.1
78696;SHT31;68030;51.980;5.646;2023-06-14T15:16:29;29.7;24.3
78696;SHT31;68030;51.980;5.646;2023-06-14T15:18:58;29.8;23.3
78696;SHT31;68030;51.980;5.646;2023-06-14T15:21:26;29.8;23.1
78696;SHT31;68030;51.980;5.646;2023-06-14T15:23:55;29.9;23.5
78696;SHT31;68030;51.980;5.646;2023-06-14T15:26:25;30.0;23.3
78696;SHT31;68030;51.980;5.646;2023-06-14T15:28:55;30.3;23.3
78696;SHT31;68030;51.980;5.646;2023-06-14T15:31:24;30.7;22.8
78696;SHT31;68030;51.980;5.646;2023-06-14T15:33:54;31.3;22.6
78696;SHT31;68030;51.980;5.646;2023-06-14T15:36:24;31.8;21.9
78696;SHT31;68030;51.980;5.646;2023-06-14T15:38:53;32.4;22.0
78696;SHT31;68030;51.980;5.646;2023-06-14T15:41:22;33.0;21.5
78696;SHT31;68030;51.980;5.646;2023-06-14T15:43:51;33.4;21.3
78696;SHT31;68030;51.980;5.646;2023-06-14T15:46:21;33.8;20.2
78696;SHT31;68030;51.980;5.646;2023-06-14T15:48:50;34.2;19.8
78696;SHT31;68030;51.980;5.646;2023-06-14T15:51:18;34.5;19.8
78696;SHT31;68030;51.980;5.646;2023-06-14T15:53:47;34.8;19.4
78696;SHT31;68030;51.980;5.646;2023-06-14T15:56:15;35.1;19.5
78696;SHT31;68030;51.980;5.646;2023-06-14T15:58:44;35.4;19.0
78696;SHT31;68030;51.980;5.646;2023-06-14T16:01:12;35.7;18.8
78696;SHT31;68030;51.980;5.646;2023-06-14T16:03:41;35.9;18.9
78696;SHT31;68030;51.980;5.646;2023-06-14T16:06:09;36.1;18.7
78696;SHT31;68030;51.980;5.646;2023-06-14T16:08:38;36.3;18.5
78696;SHT31;68030;51.980;5.646;2023-06-14T16:11:07;36.5;18.2
78696;SHT31;68030;51.980;5.646;2023-06-14T16:13:37;36.7;18.3
78696;SHT31;68030;51.980;5.646;2023-06-14T16:16:06;36.9;18.4
78696;SHT31;68030;51.980;5.646;2023-06-14T16:18:34;37.0;18.1
78696;SHT31;68030;51.980;5.646;2023-06-14T16:21:03;37.1;17.9